sensor_id;sensor_type;location;lat;lon;timestamp;P1;durP1;ratioP1;P2;durP2;ratioP2
14776;SDS011;7480;43.124;25.686;2023-10-13T00:02:10;4.90;;;3.30;;
14776;SDS011;7480;43.124;25.686;2023-10-13T00:04:37;6.27;;;3.10;;
14776;SDS011;7480;43.124;25.686;2023-10-13T00:07:04;6.57;;;2.97;;
14776;SDS011;7480;43.124;25.686;2023-10-13T00:09:35;5.57;;;3.33;;
14776;SDS011;7480;43.124;25.686;2023-10-13T00:12:05;6.90;;;2.90;;
14776;SDS011;7480;43.124;25.686;2023-10-13T00:14:37;3.87;;;2.77;;
14776;SDS011;7480;43.124;25.686;2023-10-13T00:17:05;8.30;;;3.53;;
14776;SDS011;7480;43.124;25.686;2023-10-13T00:19:42;6.77;;;2.87;;
14776;SDS011;7480;43.124;25.686;2023-10-13T00:22:19;7.30;;;3.50;;
14776;SDS011;7480;43.124;25.686;2023-10-13T00:24:46;3.07;;;2.33;;
14776;SDS011;7480;43.124;25.686;2023-10-13T00:27:14;3.70;;;2.87;;
14776;SDS011;7480;43.124;25.686;2023-10-13T00:30:03;3.10;;;2.80;;
14776;SDS011;7480;43.124;25.686;2023-10-13T00:32:44;4.07;;;2.90;;
14776;SDS011;7480;43.124;25.686;2023-10-13T00:35:25;3.70;;;2.97;;
14776;SDS011;7480;43.124;25.686;2023-10-13T00:38:02;8.43;;;2.83;;
14776;SDS011;7480;43.124;25.686;2023-10-13T00:40:31;4.77;;;3.40;;
14776;SDS011;7480;43.124;25.686;2023-10-13T00:42:59;6.10;;;3.47;;
14776;SDS011;7480;43.124;25.686;2023-10-13T00:48:35;5.93;;;3.53;;
14776;SDS011;7480;43.124;25.686;2023-10-13T00:51:12;4.87;;;3.37;;
14776;SDS011;7480;43.124;25.686;2023-10-13T00:54:05;6.30;;;3.90;;
14776;SDS011;7480;43.124;25.686;2023-10-13T00:56:41;4.33;;;3.10;;
14776;SDS011;7480;43.124;25.686;2023-10-13T00:59:30;4.83;;;3.07;;
14776;SDS011;7480;43.124;25.686;2023-10-13T01:02:03;4.80;;;3.30;;
14776;SDS011;7480;43.124;25.686;2023-10-13T01:04:49;4.90;;;3.10;;
14776;SDS011;7480;43.124;25.686;2023-10-13T01:07:16;6.50;;;3.10;;
14776;SDS011;7480;43.124;25.686;2023-10-13T01:09:43;4.43;;;2.97;;
14776;SDS011;7480;43.124;25.686;2023-10-13T01:12:10;4.20;;;2.80;;
14776;SDS011;7480;43.124;25.686;2023-10-13T01:14:37;3.43;;;2.93;;
14776;SDS011;7480;43.124;25.686;2023-10-13T01:17:04;5.00;;;3.10;;
14776;SDS011;7480;43.124;25.686;2023-10-13T01:19:35;4.63;;;2.87;;
14776;SDS011;7480;43.124;25.686;2023-10-13T01:22:05;4.20;;;2.90;;
14776;SDS011;7480;43.124;25.686;2023-10-13T01:24:33;5.33;;;2.80;;
14776;SDS011;7480;43.124;25.686;2023-10-13T01:27:02;3.67;;;2.90;;
14776;SDS011;7480;43.124;25.686;2023-10-13T01:29:47;4.77;;;2.90;;
14776;SDS011;7480;43.124;25.686;2023-10-13T01:32:30;8.73;;;2.93;;
14776;SDS011;7480;43.124;25.686;2023-10-13T01:34:58;4.70;;;3.53;;
14776;SDS011;7480;43.124;25.686;2023-10-13T01:37:32;8.03;;;3.93;;
14776;SDS011;7480;43.124;25.686;2023-10-13T01:39:58;5.03;;;3.40;;
14776;SDS011;7480;43.124;25.686;2023-10-13T01:42:25;9.23;;;3.53;;
14776;SDS011;7480;43.124;25.686;2023-10-13T01:44:52;3.87;;;3.07;;
14776;SDS011;7480;43.124;25.686;2023-10-13T01:47:24;4.33;;;3.50;;
14776;SDS011;7480;43.124;25.686;2023-10-13T01:49:54;5.57;;;3.80;;
14776;SDS011;7480;43.124;25.686;2023-10-13T01:52:24;5.67;;;3.00;;
14776;SDS011;7480;43.124;25.686;2023-10-13T01:54:53;3.30;;;2.90;;
14776;SDS011;7480;43.124;25.686;2023-10-13T01:57:20;4.60;;;3.10;;
14776;SDS011;7480;43.124;25.686;2023-10-13T01:59:50;5.07;;;3.23;;
14776;SDS011;7480;43.124;25.686;2023-10-13T02:02:17;6.90;;;3.50;;
14776;SDS011;7480;43.124;25.686;2023-10-13T02:04:56;5.63;;;3.90;;
14776;SDS011;7480;43.124;25.686;2023-10-13T02:07:27;4.87;;;3.53;;
14776;SDS011;7480;43.124;25.686;2023-10-13T02:09:56;4.00;;;3.40;;
14776;SDS011;7480;43.124;25.686;2023-10-13T02:12:23;4.73;;;3.40;;
14776;SDS011;7480;43.124;25.686;2023-10-13T02:14:55;5.23;;;3.80;;
14776;SDS011;7480;43.124;25.686;2023-10-13T02:17:22;5.77;;;3.60;;
14776;SDS011;7480;43.124;25.686;2023-10-13T02:19:49;6.33;;;4.20;;
14776;SDS011;7480;43.124;25.686;2023-10-13T02:22:20;5.23;;;3.70;;
14776;SDS011;7480;43.124;25.686;2023-10-13T02:24:55;5.17;;;3.83;;
14776;SDS011;7480;43.124;25.686;2023-10-13T02:27:28;6.97;;;3.50;;
14776;SDS011;7480;43.124;25.686;2023-10-13T02:29:55;4.63;;;3.53;;
14776;SDS011;7480;43.124;25.686;2023-10-13T02:32:25;5.13;;;3.50;;
14776;SDS011;7480;43.124;25.686;2023-10-13T02:34:53;4.17;;;3.63;;
14776;SDS011;7480;43.124;25.686;2023-10-13T02:37:24;9.47;;;3.70;;
14776;SDS011;7480;43.124;25.686;2023-10-13T02:39:50;4.77;;;3.60;;
14776;SDS011;7480;43.124;25.686;2023-10-13T02:42:17;5.00;;;3.87;;
14776;SDS011;7480;43.124;25.686;2023-10-13T02:44:52;4.27;;;3.50;;
14776;SDS011;7480;43.124;25.686;2023-10-13T02:47:22;6.47;;;3.93;;
14776;SDS011;7480;43.124;25.686;2023-10-13T02:49:50;5.27;;;3.60;;
14776;SDS011;7480;43.124;25.686;2023-10-13T02:52:17;6.87;;;4.00;;
14776;SDS011;7480;43.124;25.686;2023-10-13T02:54:44;4.43;;;3.47;;
14776;SDS011;7480;43.124;25.686;2023-10-13T02:57:16;7.50;;;3.37;;
14776;SDS011;7480;43.124;25.686;2023-10-13T02:59:44;5.07;;;3.63;;
14776;SDS011;7480;43.124;25.686;2023-10-13T03:02:14;5.70;;;3.33;;
14776;SDS011;7480;43.124;25.686;2023-10-13T03:04:50;5.37;;;3.40;;
14776;SDS011;7480;43.124;25.686;2023-10-13T03:07:18;4.27;;;3.50;;
14776;SDS011;7480;43.124;25.686;2023-10-13T03:09:55;7.00;;;3.63;;
14776;SDS011;7480;43.124;25.686;2023-10-13T03:12:36;4.23;;;3.40;;
14776;SDS011;7480;43.124;25.686;2023-10-13T03:15:03;5.33;;;3.40;;
14776;SDS011;7480;43.124;25.686;2023-10-13T03:17:36;5.03;;;3.60;;
14776;SDS011;7480;43.124;25.686;2023-10-13T03:20:07;6.40;;;3.63;;
14776;SDS011;7480;43.124;25.686;2023-10-13T03:22:37;7.03;;;3.30;;
14776;SDS011;7480;43.124;25.686;2023-10-13T03:25:04;4.40;;;3.60;;
14776;SDS011;7480;43.124;25.686;2023-10-13T03:27:34;5.77;;;4.03;;
14776;SDS011;7480;43.124;25.686;2023-10-13T03:30:22;5.83;;;4.33;;
14776;SDS011;7480;43.124;25.686;2023-10-13T03:32:56;6.23;;;4.83;;
14776;SDS011;7480;43.124;25.686;2023-10-13T03:35:23;4.70;;;3.70;;
14776;SDS011;7480;43.124;25.686;2023-10-13T03:38:03;6.03;;;3.77;;
14776;SDS011;7480;43.124;25.686;2023-10-13T03:40:41;5.93;;;3.30;;
14776;SDS011;7480;43.124;25.686;2023-10-13T03:43:07;5.13;;;3.67;;
14776;SDS011;7480;43.124;25.686;2023-10-13T03:45:40;4.68;;;3.40;;
14776;SDS011;7480;43.124;25.686;2023-10-13T03:48:14;5.27;;;3.40;;
14776;SDS011;7480;43.124;25.686;2023-10-13T03:53:35;4.77;;;2.90;;
14776;SDS011;7480;43.124;25.686;2023-10-13T03:56:22;5.90;;;3.90;;
14776;SDS011;7480;43.124;25.686;2023-10-13T03:58:57;5.47;;;3.90;;
14776;SDS011;7480;43.124;25.686;2023-10-13T04:01:27;6.33;;;4.67;;
14776;SDS011;7480;43.124;25.686;2023-10-13T04:04:06;6.96;;;4.77;;
14776;SDS011;7480;43.124;25.686;2023-10-13T04:06:38;9.33;;;6.20;;
14776;SDS011;7480;43.124;25.686;2023-10-13T04:09:20;6.67;;;5.10;;
14776;SDS011;7480;43.124;25.686;2023-10-13T04:14:46;7.67;;;5.63;;
14776;SDS011;7480;43.124;25.686;2023-10-13T04:17:41;7.80;;;5.83;;
14776;SDS011;7480;43.124;25.686;2023-10-13T04:20:12;9.30;;;6.33;;
14776;SDS011;7480;43.124;25.686;2023-10-13T04:22:40;7.90;;;5.87;;
14776;SDS011;7480;43.124;25.686;2023-10-13T04:25:20;7.97;;;6.00;;
14776;SDS011;7480;43.124;25.686;2023-10-13T04:28:02;7.00;;;5.50;;
14776;SDS011;7480;43.124;25.686;2023-10-13T04:30:46;9.33;;;6.33;;
14776;SDS011;7480;43.124;25.686;2023-10-13T04:33:23;10.13;;;5.40;;
14776;SDS011;7480;43.124;25.686;2023-10-13T04:36:12;7.57;;;5.97;;
14776;SDS011;7480;43.124;25.686;2023-10-13T04:38:52;8.90;;;6.00;;
14776;SDS011;7480;43.124;25.686;2023-10-13T04:41:32;10.40;;;5.60;;
14776;SDS011;7480;43.124;25.686;2023-10-13T04:44:15;7.77;;;5.73;;
14776;SDS011;7480;43.124;25.686;2023-10-13T04:47:01;11.33;;;6.27;;
14776;SDS011;7480;43.124;25.686;2023-10-13T04:49:31;13.80;;;7.77;;
14776;SDS011;7480;43.124;25.686;2023-10-13T04:52:16;16.03;;;7.70;;
14776;SDS011;7480;43.124;25.686;2023-10-13T04:55:02;12.00;;;7.57;;
14776;SDS011;7480;43.124;25.686;2023-10-13T04:57:59;12.27;;;7.20;;
14776;SDS011;7480;43.124;25.686;2023-10-13T05:00:46;10.43;;;6.37;;
14776;SDS011;7480;43.124;25.686;2023-10-13T05:03:22;7.87;;;4.93;;
14776;SDS011;7480;43.124;25.686;2023-10-13T05:06:19;6.10;;;4.27;;
14776;SDS011;7480;43.124;25.686;2023-10-13T05:09:10;4.77;;;3.70;;
14776;SDS011;7480;43.124;25.686;2023-10-13T05:11:55;5.33;;;3.30;;
14776;SDS011;7480;43.124;25.686;2023-10-13T05:14:40;4.67;;;3.13;;
14776;SDS011;7480;43.124;25.686;2023-10-13T05:17:25;5.20;;;3.33;;
14776;SDS011;7480;43.124;25.686;2023-10-13T05:20:11;9.50;;;5.73;;
14776;SDS011;7480;43.124;25.686;2023-10-13T05:22:56;6.50;;;4.47;;
14776;SDS011;7480;43.124;25.686;2023-10-13T05:25:41;16.00;;;6.63;;
14776;SDS011;7480;43.124;25.686;2023-10-13T05:28:26;8.73;;;6.60;;
14776;SDS011;7480;43.124;25.686;2023-10-13T05:31:11;15.63;;;6.43;;
14776;SDS011;7480;43.124;25.686;2023-10-13T05:33:57;12.03;;;7.07;;
14776;SDS011;7480;43.124;25.686;2023-10-13T05:36:42;13.13;;;8.83;;
14776;SDS011;7480;43.124;25.686;2023-10-13T05:39:27;13.67;;;8.50;;
14776;SDS011;7480;43.124;25.686;2023-10-13T05:42:12;11.47;;;7.47;;
14776;SDS011;7480;43.124;25.686;2023-10-13T05:44:57;16.23;;;9.00;;
14776;SDS011;7480;43.124;25.686;2023-10-13T05:47:42;13.30;;;7.33;;
14776;SDS011;7480;43.124;25.686;2023-10-13T05:50:10;11.87;;;6.20;;
14776;SDS011;7480;43.124;25.686;2023-10-13T05:53:00;9.97;;;6.40;;
14776;SDS011;7480;43.124;25.686;2023-10-13T05:55:30;10.30;;;5.70;;
14776;SDS011;7480;43.124;25.686;2023-10-13T05:58:16;15.73;;;8.27;;
14776;SDS011;7480;43.124;25.686;2023-10-13T06:01:01;14.10;;;6.60;;
14776;SDS011;7480;43.124;25.686;2023-10-13T06:03:47;8.90;;;5.60;;
14776;SDS011;7480;43.124;25.686;2023-10-13T06:06:32;15.07;;;5.57;;
14776;SDS011;7480;43.124;25.686;2023-10-13T06:09:17;11.87;;;5.90;;
14776;SDS011;7480;43.124;25.686;2023-10-13T06:12:02;7.37;;;4.87;;
14776;SDS011;7480;43.124;25.686;2023-10-13T06:14:47;7.87;;;4.30;;
14776;SDS011;7480;43.124;25.686;2023-10-13T06:17:34;6.70;;;4.73;;
14776;SDS011;7480;43.124;25.686;2023-10-13T06:20:20;7.03;;;5.57;;
14776;SDS011;7480;43.124;25.686;2023-10-13T06:23:05;9.53;;;5.00;;
14776;SDS011;7480;43.124;25.686;2023-10-13T06:25:53;6.60;;;5.40;;
14776;SDS011;7480;43.124;25.686;2023-10-13T06:28:39;10.60;;;4.87;;
14776;SDS011;7480;43.124;25.686;2023-10-13T06:31:09;10.80;;;5.23;;
14776;SDS011;7480;43.124;25.686;2023-10-13T06:33:55;7.00;;;5.43;;
14776;SDS011;7480;43.124;25.686;2023-10-13T06:36:22;8.87;;;5.17;;
14776;SDS011;7480;43.124;25.686;2023-10-13T06:38:49;12.33;;;5.33;;
14776;SDS011;7480;43.124;25.686;2023-10-13T06:41:35;9.73;;;6.27;;
14776;SDS011;7480;43.124;25.686;2023-10-13T06:44:07;8.37;;;5.60;;
14776;SDS011;7480;43.124;25.686;2023-10-13T06:46:41;8.40;;;4.83;;
14776;SDS011;7480;43.124;25.686;2023-10-13T06:49:08;11.20;;;4.73;;
14776;SDS011;7480;43.124;25.686;2023-10-13T06:51:36;8.30;;;4.13;;
14776;SDS011;7480;43.124;25.686;2023-10-13T06:54:06;5.23;;;4.20;;
14776;SDS011;7480;43.124;25.686;2023-10-13T06:56:48;8.10;;;4.37;;
14776;SDS011;7480;43.124;25.686;2023-10-13T06:59:19;6.27;;;4.27;;
14776;SDS011;7480;43.124;25.686;2023-10-13T07:01:46;8.73;;;4.40;;
14776;SDS011;7480;43.124;25.686;2023-10-13T07:04:14;8.80;;;4.03;;
14776;SDS011;7480;43.124;25.686;2023-10-13T07:06:43;5.67;;;4.17;;
14776;SDS011;7480;43.124;25.686;2023-10-13T07:09:16;6.93;;;4.57;;
14776;SDS011;7480;43.124;25.686;2023-10-13T07:12:02;8.13;;;5.07;;
14776;SDS011;7480;43.124;25.686;2023-10-13T07:14:33;5.53;;;4.73;;
14776;SDS011;7480;43.124;25.686;2023-10-13T07:17:01;6.33;;;4.23;;
14776;SDS011;7480;43.124;25.686;2023-10-13T07:19:31;6.47;;;4.93;;
14776;SDS011;7480;43.124;25.686;2023-10-13T07:22:00;6.40;;;4.70;;
14776;SDS011;7480;43.124;25.686;2023-10-13T07:24:47;6.53;;;4.47;;
14776;SDS011;7480;43.124;25.686;2023-10-13T07:27:16;5.47;;;4.90;;
14776;SDS011;7480;43.124;25.686;2023-10-13T07:29:50;6.67;;;4.33;;
14776;SDS011;7480;43.124;25.686;2023-10-13T07:32:43;10.63;;;5.00;;
14776;SDS011;7480;43.124;25.686;2023-10-13T07:35:17;6.70;;;4.97;;
14776;SDS011;7480;43.124;25.686;2023-10-13T07:37:46;6.07;;;4.30;;
14776;SDS011;7480;43.124;25.686;2023-10-13T07:40:29;8.21;;;5.60;;
14776;SDS011;7480;43.124;25.686;2023-10-13T07:42:56;6.63;;;5.10;;
14776;SDS011;7480;43.124;25.686;2023-10-13T07:45:38;9.10;;;5.53;;
14776;SDS011;7480;43.124;25.686;2023-10-13T07:48:08;6.73;;;5.27;;
14776;SDS011;7480;43.124;25.686;2023-10-13T07:50:58;8.47;;;5.10;;
14776;SDS011;7480;43.124;25.686;2023-10-13T07:53:43;7.17;;;5.70;;
14776;SDS011;7480;43.124;25.686;2023-10-13T07:56:10;5.00;;;4.40;;
14776;SDS011;7480;43.124;25.686;2023-10-13T07:58:40;6.60;;;4.73;;
14776;SDS011;7480;43.124;25.686;2023-10-13T08:01:19;6.17;;;4.37;;
14776;SDS011;7480;43.124;25.686;2023-10-13T08:03:46;7.07;;;4.47;;
14776;SDS011;7480;43.124;25.686;2023-10-13T08:06:14;4.37;;;3.80;;
14776;SDS011;7480;43.124;25.686;2023-10-13T08:08:46;7.33;;;4.10;;
14776;SDS011;7480;43.124;25.686;2023-10-13T08:11:17;5.53;;;3.97;;
14776;SDS011;7480;43.124;25.686;2023-10-13T08:16:35;7.10;;;4.23;;
14776;SDS011;7480;43.124;25.686;2023-10-13T08:19:23;5.07;;;4.17;;
14776;SDS011;7480;43.124;25.686;2023-10-13T08:21:54;6.57;;;4.40;;
14776;SDS011;7480;43.124;25.686;2023-10-13T08:24:40;5.03;;;3.90;;
14776;SDS011;7480;43.124;25.686;2023-10-13T08:27:07;4.97;;;3.50;;
14776;SDS011;7480;43.124;25.686;2023-10-13T08:29:52;4.87;;;3.20;;
14776;SDS011;7480;43.124;25.686;2023-10-13T08:32:26;4.13;;;2.90;;
14776;SDS011;7480;43.124;25.686;2023-10-13T08:34:57;6.03;;;3.60;;
14776;SDS011;7480;43.124;25.686;2023-10-13T08:37:25;3.70;;;3.20;;
14776;SDS011;7480;43.124;25.686;2023-10-13T08:39:53;4.90;;;2.93;;
14776;SDS011;7480;43.124;25.686;2023-10-13T08:42:34;5.30;;;3.00;;
14776;SDS011;7480;43.124;25.686;2023-10-13T08:45:08;4.93;;;3.87;;
14776;SDS011;7480;43.124;25.686;2023-10-13T08:47:50;6.70;;;3.30;;
14776;SDS011;7480;43.124;25.686;2023-10-13T08:50:34;5.80;;;3.27;;
14776;SDS011;7480;43.124;25.686;2023-10-13T08:53:18;4.27;;;3.23;;
14776;SDS011;7480;43.124;25.686;2023-10-13T08:56:02;8.33;;;3.30;;
14776;SDS011;7480;43.124;25.686;2023-10-13T08:58:50;4.40;;;2.87;;
14776;SDS011;7480;43.124;25.686;2023-10-13T09:01:21;4.00;;;2.87;;
14776;SDS011;7480;43.124;25.686;2023-10-13T09:04:15;6.63;;;3.10;;
14776;SDS011;7480;43.124;25.686;2023-10-13T09:07:01;3.43;;;2.90;;
14776;SDS011;7480;43.124;25.686;2023-10-13T09:12:19;3.70;;;2.83;;
14776;SDS011;7480;43.124;25.686;2023-10-13T09:14:52;3.23;;;2.70;;
14776;SDS011;7480;43.124;25.686;2023-10-13T09:17:40;3.73;;;2.83;;
14776;SDS011;7480;43.124;25.686;2023-10-13T09:20:33;3.90;;;2.95;;
14776;SDS011;7480;43.124;25.686;2023-10-13T09:23:10;5.05;;;2.65;;
14776;SDS011;7480;43.124;25.686;2023-10-13T09:25:39;5.28;;;2.67;;
14776;SDS011;7480;43.124;25.686;2023-10-13T09:28:20;3.20;;;2.55;;
14776;SDS011;7480;43.124;25.686;2023-10-13T09:30:53;3.30;;;2.58;;
14776;SDS011;7480;43.124;25.686;2023-10-13T09:33:24;4.13;;;2.72;;
14776;SDS011;7480;43.124;25.686;2023-10-13T09:36:06;2.85;;;2.30;;
14776;SDS011;7480;43.124;25.686;2023-10-13T09:38:34;6.05;;;2.72;;
14776;SDS011;7480;43.124;25.686;2023-10-13T09:41:14;2.90;;;2.60;;
14776;SDS011;7480;43.124;25.686;2023-10-13T09:43:53;4.70;;;2.50;;
14776;SDS011;7480;43.124;25.686;2023-10-13T09:46:25;3.92;;;3.05;;
14776;SDS011;7480;43.124;25.686;2023-10-13T09:49:05;4.07;;;2.40;;
14776;SDS011;7480;43.124;25.686;2023-10-13T09:51:49;5.43;;;2.97;;
14776;SDS011;7480;43.124;25.686;2023-10-13T09:57:02;4.00;;;2.70;;
14776;SDS011;7480;43.124;25.686;2023-10-13T09:59:39;4.82;;;2.40;;
14776;SDS011;7480;43.124;25.686;2023-10-13T10:02:15;3.28;;;2.30;;
14776;SDS011;7480;43.124;25.686;2023-10-13T10:04:53;4.72;;;2.42;;
14776;SDS011;7480;43.124;25.686;2023-10-13T10:07:39;3.15;;;2.53;;
14776;SDS011;7480;43.124;25.686;2023-10-13T10:10:06;5.90;;;3.88;;
14776;SDS011;7480;43.124;25.686;2023-10-13T10:15:22;2.33;;;2.13;;
14776;SDS011;7480;43.124;25.686;2023-10-13T10:18:01;3.38;;;2.13;;
14776;SDS011;7480;43.124;25.686;2023-10-13T10:20:29;8.18;;;3.08;;
14776;SDS011;7480;43.124;25.686;2023-10-13T10:23:09;3.05;;;2.75;;
14776;SDS011;7480;43.124;25.686;2023-10-13T10:25:48;5.18;;;2.38;;
14776;SDS011;7480;43.124;25.686;2023-10-13T10:28:18;2.40;;;2.20;;
14776;SDS011;7480;43.124;25.686;2023-10-13T10:30:46;5.47;;;2.47;;
14776;SDS011;7480;43.124;25.686;2023-10-13T10:33:13;2.47;;;2.25;;
14776;SDS011;7480;43.124;25.686;2023-10-13T10:35:42;3.22;;;2.47;;
14776;SDS011;7480;43.124;25.686;2023-10-13T10:41:01;3.38;;;2.42;;
14776;SDS011;7480;43.124;25.686;2023-10-13T10:48:44;2.88;;;2.45;;
14776;SDS011;7480;43.124;25.686;2023-10-13T10:51:12;3.70;;;2.95;;
14776;SDS011;7480;43.124;25.686;2023-10-13T10:53:52;3.10;;;2.25;;
14776;SDS011;7480;43.124;25.686;2023-10-13T10:56:23;4.72;;;2.85;;
14776;SDS011;7480;43.124;25.686;2023-10-13T10:59:06;3.47;;;2.72;;
14776;SDS011;7480;43.124;25.686;2023-10-13T11:01:45;3.70;;;2.40;;
14776;SDS011;7480;43.124;25.686;2023-10-13T11:04:17;3.63;;;2.90;;
14776;SDS011;7480;43.124;25.686;2023-10-13T11:06:56;4.43;;;2.33;;
14776;SDS011;7480;43.124;25.686;2023-10-13T11:09:28;2.70;;;2.40;;
14776;SDS011;7480;43.124;25.686;2023-10-13T11:14:59;2.88;;;2.50;;
14776;SDS011;7480;43.124;25.686;2023-10-13T11:17:35;2.60;;;2.35;;
14776;SDS011;7480;43.124;25.686;2023-10-13T11:20:12;4.85;;;2.42;;
14776;SDS011;7480;43.124;25.686;2023-10-13T11:23:00;2.72;;;2.40;;
14776;SDS011;7480;43.124;25.686;2023-10-13T11:25:31;4.20;;;2.65;;
14776;SDS011;7480;43.124;25.686;2023-10-13T11:28:11;3.05;;;2.50;;
14776;SDS011;7480;43.124;25.686;2023-10-13T11:30:57;3.28;;;2.28;;
14776;SDS011;7480;43.124;25.686;2023-10-13T11:33:46;3.97;;;2.10;;
14776;SDS011;7480;43.124;25.686;2023-10-13T11:36:13;3.40;;;2.20;;
14776;SDS011;7480;43.124;25.686;2023-10-13T11:38:50;3.58;;;2.22;;
14776;SDS011;7480;43.124;25.686;2023-10-13T11:41:17;3.60;;;2.47;;
14776;SDS011;7480;43.124;25.686;2023-10-13T11:43:49;2.67;;;2.10;;
14776;SDS011;7480;43.124;25.686;2023-10-13T11:46:22;2.58;;;1.75;;
14776;SDS011;7480;43.124;25.686;2023-10-13T11:49:07;2.42;;;2.22;;
14776;SDS011;7480;43.124;25.686;2023-10-13T11:51:45;2.83;;;2.03;;
14776;SDS011;7480;43.124;25.686;2023-10-13T11:54:13;2.55;;;2.30;;
14776;SDS011;7480;43.124;25.686;2023-10-13T11:56:45;3.90;;;2.50;;
14776;SDS011;7480;43.124;25.686;2023-10-13T11:59:12;3.60;;;2.28;;
14776;SDS011;7480;43.124;25.686;2023-10-13T12:01:47;2.78;;;2.35;;
14776;SDS011;7480;43.124;25.686;2023-10-13T12:04:33;3.03;;;2.20;;
14776;SDS011;7480;43.124;25.686;2023-10-13T12:07:19;4.45;;;2.30;;
14776;SDS011;7480;43.124;25.686;2023-10-13T12:09:47;3.45;;;2.50;;
14776;SDS011;7480;43.124;25.686;2023-10-13T12:12:18;2.33;;;2.00;;
14776;SDS011;7480;43.124;25.686;2023-10-13T12:14:45;3.38;;;2.15;;
14776;SDS011;7480;43.124;25.686;2023-10-13T12:17:23;4.47;;;2.60;;
14776;SDS011;7480;43.124;25.686;2023-10-13T12:19:55;2.97;;;2.50;;
14776;SDS011;7480;43.124;25.686;2023-10-13T12:22:23;6.80;;;2.50;;
14776;SDS011;7480;43.124;25.686;2023-10-13T12:25:16;3.85;;;2.08;;
14776;SDS011;7480;43.124;25.686;2023-10-13T12:27:58;2.22;;;2.00;;
14776;SDS011;7480;43.124;25.686;2023-10-13T12:30:42;3.00;;;2.10;;
14776;SDS011;7480;43.124;25.686;2023-10-13T12:33:21;3.13;;;2.42;;
14776;SDS011;7480;43.124;25.686;2023-10-13T12:35:58;2.90;;;2.20;;
14776;SDS011;7480;43.124;25.686;2023-10-13T12:38:41;7.18;;;2.60;;
14776;SDS011;7480;43.124;25.686;2023-10-13T12:41:14;3.08;;;2.17;;
14776;SDS011;7480;43.124;25.686;2023-10-13T12:44:02;2.78;;;2.10;;
14776;SDS011;7480;43.124;25.686;2023-10-13T12:46:49;4.57;;;2.42;;
14776;SDS011;7480;43.124;25.686;2023-10-13T12:49:35;2.38;;;2.03;;
14776;SDS011;7480;43.124;25.686;2023-10-13T12:52:11;3.50;;;2.35;;
14776;SDS011;7480;43.124;25.686;2023-10-13T12:54:52;5.10;;;2.20;;
14776;SDS011;7480;43.124;25.686;2023-10-13T12:57:32;2.55;;;2.15;;
14776;SDS011;7480;43.124;25.686;2023-10-13T12:59:59;4.47;;;1.92;;
14776;SDS011;7480;43.124;25.686;2023-10-13T13:02:26;4.88;;;2.38;;
14776;SDS011;7480;43.124;25.686;2023-10-13T13:04:54;2.50;;;2.30;;
14776;SDS011;7480;43.124;25.686;2023-10-13T13:07:32;2.53;;;2.10;;
14776;SDS011;7480;43.124;25.686;2023-10-13T13:10:10;3.45;;;2.08;;
14776;SDS011;7480;43.124;25.686;2023-10-13T13:12:38;4.72;;;2.10;;
14776;SDS011;7480;43.124;25.686;2023-10-13T13:15:05;3.85;;;2.58;;
14776;SDS011;7480;43.124;25.686;2023-10-13T13:17:35;2.97;;;2.22;;
14776;SDS011;7480;43.124;25.686;2023-10-13T13:20:03;3.75;;;2.20;;
14776;SDS011;7480;43.124;25.686;2023-10-13T13:22:37;2.50;;;2.30;;
14776;SDS011;7480;43.124;25.686;2023-10-13T13:25:05;2.70;;;2.42;;
14776;SDS011;7480;43.124;25.686;2023-10-13T13:27:35;6.03;;;2.33;;
14776;SDS011;7480;43.124;25.686;2023-10-13T13:30:03;4.20;;;2.67;;
14776;SDS011;7480;43.124;25.686;2023-10-13T13:32:39;2.67;;;2.30;;
14776;SDS011;7480;43.124;25.686;2023-10-13T13:35:07;2.83;;;2.28;;
14776;SDS011;7480;43.124;25.686;2023-10-13T13:37:35;3.10;;;2.50;;
14776;SDS011;7480;43.124;25.686;2023-10-13T13:40:04;6.05;;;3.00;;
14776;SDS011;7480;43.124;25.686;2023-10-13T13:42:45;2.75;;;2.10;;
14776;SDS011;7480;43.124;25.686;2023-10-13T13:45:12;3.47;;;2.58;;
14776;SDS011;7480;43.124;25.686;2023-10-13T13:47:48;7.20;;;2.53;;
14776;SDS011;7480;43.124;25.686;2023-10-13T13:50:23;3.03;;;1.98;;
14776;SDS011;7480;43.124;25.686;2023-10-13T13:52:52;3.47;;;2.60;;
14776;SDS011;7480;43.124;25.686;2023-10-13T13:55:22;4.47;;;3.05;;
14776;SDS011;7480;43.124;25.686;2023-10-13T13:57:50;4.75;;;3.30;;
14776;SDS011;7480;43.124;25.686;2023-10-13T14:00:17;5.07;;;2.70;;
14776;SDS011;7480;43.124;25.686;2023-10-13T14:02:50;6.13;;;3.28;;
14776;SDS011;7480;43.124;25.686;2023-10-13T14:05:17;3.33;;;2.65;;
14776;SDS011;7480;43.124;25.686;2023-10-13T14:07:44;7.22;;;3.22;;
14776;SDS011;7480;43.124;25.686;2023-10-13T14:10:17;3.75;;;2.70;;
14776;SDS011;7480;43.124;25.686;2023-10-13T14:13:01;4.40;;;2.60;;
14776;SDS011;7480;43.124;25.686;2023-10-13T14:15:39;3.75;;;3.00;;
14776;SDS011;7480;43.124;25.686;2023-10-13T14:18:10;11.63;;;3.55;;
14776;SDS011;7480;43.124;25.686;2023-10-13T14:20:44;5.88;;;3.00;;
14776;SDS011;7480;43.124;25.686;2023-10-13T14:23:11;4.55;;;3.05;;
14776;SDS011;7480;43.124;25.686;2023-10-13T14:25:40;5.95;;;2.50;;
14776;SDS011;7480;43.124;25.686;2023-10-13T14:28:11;5.35;;;3.03;;
14776;SDS011;7480;43.124;25.686;2023-10-13T14:30:41;9.13;;;3.22;;
14776;SDS011;7480;43.124;25.686;2023-10-13T14:33:08;8.20;;;3.55;;
14776;SDS011;7480;43.124;25.686;2023-10-13T14:35:37;11.50;;;3.38;;
14776;SDS011;7480;43.124;25.686;2023-10-13T14:38:04;6.25;;;2.72;;
14776;SDS011;7480;43.124;25.686;2023-10-13T14:40:30;6.60;;;2.90;;
14776;SDS011;7480;43.124;25.686;2023-10-13T14:42:57;6.93;;;3.85;;
14776;SDS011;7480;43.124;25.686;2023-10-13T14:45:24;4.65;;;2.92;;
14776;SDS011;7480;43.124;25.686;2023-10-13T14:47:50;6.90;;;3.60;;
14776;SDS011;7480;43.124;25.686;2023-10-13T14:50:19;4.03;;;2.63;;
14776;SDS011;7480;43.124;25.686;2023-10-13T14:52:47;4.20;;;3.40;;
14776;SDS011;7480;43.124;25.686;2023-10-13T14:55:15;4.30;;;3.25;;
14776;SDS011;7480;43.124;25.686;2023-10-13T14:57:49;3.35;;;2.67;;
14776;SDS011;7480;43.124;25.686;2023-10-13T15:00:17;4.38;;;2.53;;
14776;SDS011;7480;43.124;25.686;2023-10-13T15:02:52;4.93;;;2.70;;
14776;SDS011;7480;43.124;25.686;2023-10-13T15:05:19;6.60;;;2.95;;
14776;SDS011;7480;43.124;25.686;2023-10-13T15:07:46;3.97;;;2.87;;
14776;SDS011;7480;43.124;25.686;2023-10-13T15:10:16;5.23;;;3.17;;
14776;SDS011;7480;43.124;25.686;2023-10-13T15:12:43;4.40;;;2.70;;
14776;SDS011;7480;43.124;25.686;2023-10-13T15:15:11;7.80;;;3.50;;
14776;SDS011;7480;43.124;25.686;2023-10-13T15:17:43;5.23;;;3.10;;
14776;SDS011;7480;43.124;25.686;2023-10-13T15:20:10;4.43;;;3.10;;
14776;SDS011;7480;43.124;25.686;2023-10-13T15:22:45;5.73;;;3.50;;
14776;SDS011;7480;43.124;25.686;2023-10-13T15:25:16;6.20;;;3.70;;
14776;SDS011;7480;43.124;25.686;2023-10-13T15:27:59;3.63;;;3.00;;
14776;SDS011;7480;43.124;25.686;2023-10-13T15:30:29;8.70;;;3.13;;
14776;SDS011;7480;43.124;25.686;2023-10-13T15:33:11;7.93;;;3.70;;
14776;SDS011;7480;43.124;25.686;2023-10-13T15:35:39;6.13;;;3.57;;
14776;SDS011;7480;43.124;25.686;2023-10-13T15:38:09;6.53;;;3.47;;
14776;SDS011;7480;43.124;25.686;2023-10-13T15:40:42;5.13;;;3.60;;
14776;SDS011;7480;43.124;25.686;2023-10-13T15:43:11;7.73;;;3.40;;
14776;SDS011;7480;43.124;25.686;2023-10-13T15:45:38;5.90;;;3.60;;
14776;SDS011;7480;43.124;25.686;2023-10-13T15:48:06;9.17;;;3.73;;
14776;SDS011;7480;43.124;25.686;2023-10-13T15:50:39;7.70;;;3.40;;
14776;SDS011;7480;43.124;25.686;2023-10-13T15:53:07;8.60;;;3.67;;
14776;SDS011;7480;43.124;25.686;2023-10-13T15:55:53;5.93;;;3.03;;
14776;SDS011;7480;43.124;25.686;2023-10-13T15:58:20;7.17;;;4.30;;
14776;SDS011;7480;43.124;25.686;2023-10-13T16:00:47;3.53;;;3.07;;
14776;SDS011;7480;43.124;25.686;2023-10-13T16:03:14;7.07;;;3.43;;